createdAt,value
2023-03-13T00:00:29.624Z,991.43
2023-03-13T00:01:02.439Z,991.33
2023-03-13T00:01:33.448Z,991.33
2023-03-13T00:02:06.425Z,991.33
2023-03-13T00:02:37.291Z,991.33
2023-03-13T00:03:10.354Z,991.23
2023-03-13T00:03:41.360Z,991.23
2023-03-13T00:04:14.428Z,991.23
2023-03-13T00:04:45.424Z,991.23
2023-03-13T00:05:18.246Z,991.23
2023-03-13T00:05:49.313Z,991.23
2023-03-13T00:06:22.329Z,991.23
2023-03-13T00:06:53.120Z,991.23
2023-03-13T00:07:26.056Z,991.23
2023-03-13T00:07:57.582Z,991.13
2023-03-13T00:08:30.196Z,991.13
2023-03-13T00:09:01.333Z,991.23
2023-03-13T00:09:34.055Z,991.23
2023-03-13T00:10:05.113Z,991.02
2023-03-13T00:10:38.007Z,991.02
2023-03-13T00:11:09.040Z,991.23
2023-03-13T00:11:41.875Z,991.23
2023-03-13T00:12:13.005Z,991.23
2023-03-13T00:12:45.903Z,991.23
2023-03-13T00:13:17.033Z,991.13
2023-03-13T00:13:49.841Z,991.13
2023-03-13T00:14:20.965Z,991.13
2023-03-13T00:14:53.898Z,991.13
2023-03-13T00:15:25.069Z,990.92
2023-03-13T00:15:58.073Z,990.92
2023-03-13T00:16:28.915Z,990.82
2023-03-13T00:17:01.880Z,990.92
2023-03-13T00:17:32.848Z,990.92
2023-03-13T00:18:05.648Z,991.02
2023-03-13T00:18:36.681Z,991.02
2023-03-13T00:19:10.152Z,990.92
2023-03-13T00:19:40.977Z,990.92
2023-03-13T00:20:13.501Z,991.02
2023-03-13T00:20:44.575Z,991.02
2023-03-13T00:21:17.552Z,991.02
2023-03-13T00:21:48.677Z,991.02
2023-03-13T00:22:21.489Z,991.02
2023-03-13T00:22:52.525Z,991.02
2023-03-13T00:23:25.660Z,990.92
2023-03-13T00:23:56.574Z,990.92
2023-03-13T00:24:29.396Z,991.13
2023-03-13T00:25:00.560Z,990.92
2023-03-13T00:25:33.325Z,990.92
2023-03-13T00:26:04.615Z,990.92
2023-03-13T00:26:37.193Z,990.92
2023-03-13T00:27:08.311Z,990.82
2023-03-13T00:27:41.250Z,990.82
2023-03-13T00:28:12.441Z,990.92
2023-03-13T00:28:46.084Z,990.92
2023-03-13T00:29:16.258Z,990.72
2023-03-13T00:29:49.152Z,990.72
2023-03-13T00:30:20.586Z,990.72
2023-03-13T00:30:53.192Z,990.72
2023-03-13T00:31:24.405Z,990.82
2023-03-13T00:31:57.251Z,990.82
2023-03-13T00:32:28.251Z,990.82
2023-03-13T00:33:01.148Z,990.92
2023-03-13T00:33:32.152Z,990.92
2023-03-13T00:34:04.977Z,991.02
2023-03-13T00:34:36.077Z,991.02
2023-03-13T00:35:09.069Z,990.92
2023-03-13T00:35:39.985Z,990.92
2023-03-13T00:36:12.975Z,990.82
2023-03-13T00:36:43.997Z,990.82
2023-03-13T00:37:16.731Z,990.72
2023-03-13T00:37:47.894Z,990.72
2023-03-13T00:38:20.981Z,990.72
2023-03-13T00:38:51.962Z,990.72
2023-03-13T00:39:24.903Z,991.02
2023-03-13T00:39:55.763Z,991.02
2023-03-13T00:40:28.711Z,990.82
2023-03-13T00:40:59.971Z,990.82
2023-03-13T00:41:32.770Z,990.82
2023-03-13T00:42:03.675Z,990.82
2023-03-13T00:42:36.589Z,990.82
2023-03-13T00:43:07.715Z,990.72
2023-03-13T00:43:40.822Z,990.72
2023-03-13T00:44:11.681Z,990.82
2023-03-13T00:44:44.491Z,990.82
2023-03-13T00:45:15.770Z,990.72
2023-03-13T00:45:48.599Z,990.72
2023-03-13T00:46:19.703Z,990.62
2023-03-13T00:46:52.591Z,990.62
2023-03-13T00:47:23.553Z,990.72
2023-03-13T00:47:56.489Z,990.72
2023-03-13T00:48:27.420Z,990.52
2023-03-13T00:49:00.495Z,990.42
2023-03-13T00:49:31.458Z,990.42
2023-03-13T00:50:04.377Z,990.52
2023-03-13T00:50:35.284Z,990.52
2023-03-13T00:51:08.222Z,990.52
2023-03-13T00:51:39.367Z,990.52
2023-03-13T00:52:12.184Z,990.42
2023-03-13T00:52:43.394Z,990.42
2023-03-13T00:53:16.225Z,990.42
2023-03-13T00:53:47.262Z,990.42
2023-03-13T00:54:20.245Z,990.42
2023-03-13T00:54:51.178Z,990.42
2023-03-13T00:55:24.030Z,990.52
2023-03-13T00:55:55.153Z,990.52
2023-03-13T00:56:28.109Z,990.52
2023-03-13T00:56:59.042Z,990.42
2023-03-13T00:57:31.944Z,990.42
2023-03-13T00:58:03.160Z,990.52
2023-03-13T00:58:36.093Z,990.52
2023-03-13T00:59:06.948Z,990.42
2023-03-13T00:59:39.847Z,990.42
2023-03-13T01:00:11.675Z,990.42
2023-03-13T01:00:44.536Z,990.42
2023-03-13T01:01:14.842Z,990.42
2023-03-13T01:01:47.761Z,990.42
2023-03-13T01:02:18.945Z,990.42
2023-03-13T01:02:51.936Z,990.42
2023-03-13T01:03:22.926Z,990.31
2023-03-13T01:03:55.699Z,990.31
2023-03-13T01:04:26.831Z,990.31
2023-03-13T01:05:00.234Z,990.31
2023-03-13T01:05:31.452Z,990.31
2023-03-13T01:06:03.749Z,990.31
2023-03-13T01:06:34.690Z,990.31
2023-03-13T01:07:07.642Z,990.21
2023-03-13T01:07:38.568Z,990.21
2023-03-13T01:08:11.470Z,990.21
2023-03-13T01:08:42.626Z,990.21
2023-03-13T01:09:15.559Z,990.31
2023-03-13T01:09:46.650Z,990.31
2023-03-13T01:10:19.384Z,990.21
2023-03-13T01:10:50.600Z,990.21
2023-03-13T01:11:23.548Z,990.21
2023-03-13T01:11:54.577Z,990.21
2023-03-13T01:12:27.330Z,990.42
2023-03-13T01:12:58.446Z,990.11
2023-03-13T01:13:31.440Z,990.11
2023-03-13T01:14:02.508Z,990.21
2023-03-13T01:14:35.197Z,990.21
2023-03-13T01:15:06.691Z,990.01
2023-03-13T01:15:39.188Z,990.01
2023-03-13T01:16:10.561Z,990.11
2023-03-13T01:16:43.322Z,990.11
2023-03-13T01:17:14.294Z,990.11
2023-03-13T01:17:47.190Z,990.11
2023-03-13T01:18:18.282Z,990.11
2023-03-13T01:18:51.189Z,990.11
2023-03-13T01:19:22.157Z,990.21
2023-03-13T01:19:54.990Z,990.21
2023-03-13T01:20:26.245Z,990.11
2023-03-13T01:20:58.955Z,990.21
2023-03-13T01:21:30.052Z,990.21
2023-03-13T01:22:03.012Z,990.11
2023-03-13T01:22:34.126Z,990.11
2023-03-13T01:23:06.861Z,990.11
2023-03-13T01:23:37.982Z,990.11
2023-03-13T01:24:10.952Z,989.91
2023-03-13T01:24:42.003Z,989.91
2023-03-13T01:25:14.744Z,990.01
2023-03-13T01:25:45.888Z,990.01
2023-03-13T01:26:18.791Z,989.91
2023-03-13T01:26:49.964Z,989.91
2023-03-13T01:27:22.654Z,989.91
2023-03-13T01:27:53.789Z,989.91
2023-03-13T01:28:26.852Z,990.01
2023-03-13T01:28:58.052Z,989.84
2023-03-13T01:29:30.674Z,989.84
2023-03-13T01:30:02.067Z,989.91
2023-03-13T01:30:34.637Z,989.91
2023-03-13T01:31:05.774Z,989.91
2023-03-13T01:31:38.639Z,989.91
2023-03-13T01:32:09.609Z,989.84
2023-03-13T01:32:42.589Z,989.84
2023-03-13T01:33:13.656Z,989.84
2023-03-13T01:33:46.382Z,989.84
2023-03-13T01:34:17.491Z,989.91
2023-03-13T01:34:50.622Z,989.91
2023-03-13T01:35:21.655Z,989.74
2023-03-13T01:35:54.407Z,989.74
2023-03-13T01:36:25.442Z,989.84
2023-03-13T01:36:58.383Z,989.84
2023-03-13T01:37:29.474Z,989.84
2023-03-13T01:38:02.356Z,989.84
2023-03-13T01:38:34.069Z,989.84
2023-03-13T01:39:06.267Z,989.84
2023-03-13T01:39:37.365Z,989.84
2023-03-13T01:40:10.230Z,989.84
2023-03-13T01:40:41.248Z,989.84
2023-03-13T01:41:14.164Z,989.64
2023-03-13T01:41:45.291Z,989.64
2023-03-13T01:42:18.018Z,989.74
2023-03-13T01:42:49.241Z,989.74
2023-03-13T01:43:26.862Z,989.64
2023-03-13T01:43:53.202Z,989.64
2023-03-13T01:44:26.272Z,989.84
2023-03-13T01:44:57.101Z,989.74
2023-03-13T01:45:30.096Z,989.74
2023-03-13T01:46:01.223Z,989.74
2023-03-13T01:46:34.051Z,989.74
2023-03-13T01:47:04.961Z,989.74
2023-03-13T01:47:37.912Z,989.74
2023-03-13T01:48:09.079Z,989.74
2023-03-13T01:48:41.750Z,989.74
2023-03-13T01:49:12.892Z,989.64
2023-03-13T01:49:45.929Z,989.64
2023-03-13T01:50:16.926Z,989.64
2023-03-13T01:50:49.644Z,989.64
2023-03-13T01:51:20.932Z,989.53
2023-03-13T01:51:53.691Z,989.53
2023-03-13T01:52:24.863Z,989.64
2023-03-13T01:52:57.640Z,989.64
2023-03-13T01:53:28.760Z,989.74
2023-03-13T01:54:01.786Z,989.74
2023-03-13T01:54:32.772Z,989.74
2023-03-13T01:55:05.506Z,989.64
2023-03-13T01:55:36.676Z,989.64
2023-03-13T01:56:09.446Z,989.53
2023-03-13T01:56:40.813Z,989.53
2023-03-13T01:57:13.435Z,989.53
2023-03-13T01:57:44.579Z,989.53
2023-03-13T01:58:17.463Z,989.43
2023-03-13T01:58:48.611Z,989.43
2023-03-13T01:59:21.331Z,989.33
2023-03-13T01:59:52.495Z,989.33
2023-03-13T02:00:25.617Z,989.53
2023-03-13T02:00:56.555Z,989.53
2023-03-13T02:01:29.440Z,989.33
2023-03-13T02:02:00.565Z,989.33
2023-03-13T02:02:33.350Z,989.33
2023-03-13T02:03:04.435Z,989.33
2023-03-13T02:03:37.224Z,989.33
2023-03-13T02:04:08.241Z,989.33
2023-03-13T02:04:41.203Z,989.33
2023-03-13T02:05:12.341Z,989.33
2023-03-13T02:05:45.120Z,989.33
2023-03-13T02:06:16.191Z,989.33
2023-03-13T02:06:49.099Z,989.33
2023-03-13T02:07:20.257Z,989.23
2023-03-13T02:07:52.978Z,989.23
2023-03-13T02:08:24.104Z,989.23
2023-03-13T02:08:57.172Z,989.23
2023-03-13T02:09:28.139Z,989.13
2023-03-13T02:10:01.050Z,989.13
2023-03-13T02:10:32.058Z,989.13
2023-03-13T02:11:04.889Z,989.13
2023-03-13T02:11:36.029Z,989.13
2023-03-13T02:12:08.753Z,989.33
2023-03-13T02:12:39.930Z,989.33
2023-03-13T02:13:12.819Z,989.13
2023-03-13T02:13:43.972Z,989.13
2023-03-13T02:14:16.660Z,989.23
2023-03-13T02:14:47.778Z,989.23
2023-03-13T02:15:21.154Z,988.93
2023-03-13T02:15:51.993Z,988.93
2023-03-13T02:16:24.722Z,989.03
2023-03-13T02:16:55.714Z,989.03
2023-03-13T02:17:28.619Z,989.03
2023-03-13T02:17:59.760Z,989.03
2023-03-13T02:18:32.702Z,989.03
2023-03-13T02:19:03.633Z,989.03
2023-03-13T02:19:36.524Z,989.03
2023-03-13T02:20:07.694Z,988.93
2023-03-13T02:20:40.708Z,988.93
2023-03-13T02:21:11.552Z,988.82
2023-03-13T02:21:44.422Z,988.82
2023-03-13T02:22:15.597Z,989.03
2023-03-13T02:22:48.474Z,989.03
2023-03-13T02:23:20.367Z,988.82
2023-03-13T02:23:52.415Z,988.82
2023-03-13T02:24:23.500Z,988.82
2023-03-13T02:24:56.419Z,988.82
2023-03-13T02:25:27.316Z,988.72
2023-03-13T02:26:00.366Z,988.93
2023-03-13T02:26:31.431Z,988.93
2023-03-13T02:27:04.143Z,988.82
2023-03-13T02:27:35.235Z,988.82
2023-03-13T02:28:08.162Z,988.82
2023-03-13T02:28:39.456Z,988.82
2023-03-13T02:29:12.251Z,988.72
2023-03-13T02:29:43.147Z,988.72
2023-03-13T02:30:16.242Z,988.72
2023-03-13T02:30:47.244Z,988.72
2023-03-13T02:31:20.171Z,988.72
2023-03-13T02:31:52.009Z,988.72
2023-03-13T02:32:24.138Z,988.93
2023-03-13T02:32:55.235Z,988.93
2023-03-13T02:33:28.142Z,988.72
2023-03-13T02:33:59.047Z,988.52
2023-03-13T02:34:31.944Z,988.52
2023-03-13T02:35:03.010Z,988.52
2023-03-13T02:35:36.116Z,988.52
2023-03-13T02:36:06.865Z,988.52
2023-03-13T02:36:39.811Z,988.52
2023-03-13T02:37:11.073Z,988.42
2023-03-13T02:37:43.759Z,988.42
2023-03-13T02:38:14.780Z,988.52
2023-03-13T02:38:47.803Z,988.52
2023-03-13T02:39:18.826Z,988.42
2023-03-13T02:39:51.740Z,988.42
2023-03-13T02:40:22.720Z,988.42
2023-03-13T02:40:55.632Z,988.42
2023-03-13T02:41:26.762Z,988.72
2023-03-13T02:41:59.664Z,988.52
2023-03-13T02:42:30.740Z,988.52
2023-03-13T02:43:03.730Z,988.52
2023-03-13T02:43:34.714Z,988.52
2023-03-13T02:44:07.591Z,988.42
2023-03-13T02:44:38.576Z,988.42
2023-03-13T02:45:11.615Z,988.42
2023-03-13T02:45:42.755Z,988.42
2023-03-13T02:46:15.560Z,988.32
2023-03-13T02:46:46.502Z,988.32
2023-03-13T02:47:19.328Z,988.42
2023-03-13T02:47:50.643Z,988.42
2023-03-13T02:48:23.522Z,988.42
2023-03-13T02:48:54.351Z,988.42
2023-03-13T02:49:27.255Z,988.52
2023-03-13T02:49:58.593Z,988.42
2023-03-13T02:50:31.358Z,988.42
2023-03-13T02:51:02.241Z,988.52
2023-03-13T02:51:35.167Z,988.52
2023-03-13T02:52:06.338Z,988.42
2023-03-13T02:52:39.208Z,988.42
2023-03-13T02:53:10.128Z,988.21
2023-03-13T02:53:43.076Z,988.21
2023-03-13T02:54:14.206Z,988.42
2023-03-13T02:54:47.112Z,988.42
2023-03-13T02:55:18.226Z,988.21
2023-03-13T02:55:50.927Z,988.21
2023-03-13T02:56:22.151Z,988.21
2023-03-13T02:56:55.058Z,988.21
2023-03-13T02:57:25.975Z,988.21
2023-03-13T02:57:58.905Z,988.11
2023-03-13T02:58:31.743Z,988.11
2023-03-13T02:59:03.023Z,988.11
2023-03-13T02:59:33.918Z,988.11
2023-03-13T03:00:07.124Z,988.21
2023-03-13T03:00:38.070Z,988.21
2023-03-13T03:01:11.005Z,988.11
2023-03-13T03:01:41.826Z,988.11
2023-03-13T03:02:14.695Z,988.01
2023-03-13T03:02:45.845Z,988.01
2023-03-13T03:03:18.845Z,987.91
2023-03-13T03:03:49.799Z,987.91
2023-03-13T03:04:22.765Z,988.01
2023-03-13T03:04:53.759Z,988.01
2023-03-13T03:05:26.712Z,988.01
2023-03-13T03:05:57.772Z,987.91
2023-03-13T03:06:30.835Z,987.91
2023-03-13T03:07:01.722Z,988.01
2023-03-13T03:07:34.617Z,988.01
2023-03-13T03:08:05.707Z,988.01
2023-03-13T03:08:38.428Z,988.01
2023-03-13T03:09:09.549Z,988.01
2023-03-13T03:09:42.471Z,988.01
2023-03-13T03:10:13.633Z,987.91
2023-03-13T03:10:46.474Z,987.91
2023-03-13T03:11:17.457Z,987.81
2023-03-13T03:11:50.480Z,987.81
2023-03-13T03:12:21.582Z,987.81
2023-03-13T03:12:54.268Z,987.81
2023-03-13T03:13:25.382Z,987.91
2023-03-13T03:13:58.699Z,987.81
2023-03-13T03:14:29.423Z,987.81
2023-03-13T03:15:02.370Z,987.81
2023-03-13T03:15:33.263Z,987.81
2023-03-13T03:16:06.240Z,987.64
2023-03-13T03:16:37.380Z,987.64
2023-03-13T03:17:10.064Z,987.64
2023-03-13T03:17:41.232Z,987.64
2023-03-13T03:18:14.227Z,987.81
2023-03-13T03:18:45.245Z,987.81
2023-03-13T03:19:17.968Z,987.44
2023-03-13T03:19:49.088Z,987.44
2023-03-13T03:20:22.001Z,987.64
2023-03-13T03:20:53.179Z,987.64
2023-03-13T03:21:25.872Z,987.54
2023-03-13T03:21:57.007Z,987.64
2023-03-13T03:22:29.920Z,987.64
2023-03-13T03:23:01.167Z,987.64
2023-03-13T03:23:33.911Z,987.64
2023-03-13T03:24:05.023Z,987.54
2023-03-13T03:24:37.871Z,987.54
2023-03-13T03:25:08.970Z,987.54
2023-03-13T03:25:41.690Z,987.54
2023-03-13T03:26:12.831Z,987.54
2023-03-13T03:26:47.521Z,987.54
2023-03-13T03:27:16.909Z,987.54
2023-03-13T03:27:49.596Z,987.54
2023-03-13T03:28:20.856Z,987.44
2023-03-13T03:28:53.857Z,987.44
2023-03-13T03:29:24.893Z,987.44
2023-03-13T03:29:57.538Z,987.44
2023-03-13T03:30:28.749Z,987.44
2023-03-13T03:31:01.544Z,987.23
2023-03-13T03:31:32.723Z,987.23
2023-03-13T03:32:05.629Z,987.23
2023-03-13T03:32:36.622Z,987.23
2023-03-13T03:33:09.490Z,987.13
2023-03-13T03:33:40.677Z,987.13
2023-03-13T03:34:13.320Z,987.23
2023-03-13T03:34:44.454Z,987.23
2023-03-13T03:35:17.372Z,987.13
2023-03-13T03:35:48.599Z,987.13
2023-03-13T03:36:21.379Z,987.13
2023-03-13T03:36:52.414Z,987.13
2023-03-13T03:37:25.462Z,987.23
2023-03-13T03:37:56.714Z,987.23
2023-03-13T03:38:29.229Z,987.23
2023-03-13T03:39:00.312Z,987.13
2023-03-13T03:39:33.197Z,987.13
2023-03-13T03:40:04.328Z,987.13
2023-03-13T03:40:37.079Z,987.13
2023-03-13T03:41:08.158Z,987.03
2023-03-13T03:41:41.208Z,987.03
2023-03-13T03:42:12.295Z,987.03
2023-03-13T03:42:44.961Z,987.03
2023-03-13T03:43:16.082Z,987.03
2023-03-13T03:43:49.098Z,987.03
2023-03-13T03:44:20.220Z,987.03
2023-03-13T03:44:53.084Z,987.03
2023-03-13T03:45:24.109Z,987.03
2023-03-13T03:45:57.035Z,987.03
2023-03-13T03:46:28.040Z,986.93
2023-03-13T03:47:00.917Z,986.93
2023-03-13T03:47:32.018Z,986.93
2023-03-13T03:48:04.834Z,986.93
2023-03-13T03:48:35.975Z,986.93
2023-03-13T03:49:08.911Z,986.83
2023-03-13T03:49:39.844Z,986.83
2023-03-13T03:50:12.757Z,986.72
2023-03-13T03:50:43.858Z,986.72
2023-03-13T03:51:16.802Z,986.83
2023-03-13T03:51:47.743Z,986.83
2023-03-13T03:52:20.942Z,986.83
2023-03-13T03:52:52.017Z,986.83
2023-03-13T03:53:24.737Z,986.72
2023-03-13T03:53:55.627Z,986.72
2023-03-13T03:54:28.636Z,986.72
2023-03-13T03:54:59.760Z,986.52
2023-03-13T03:55:35.011Z,986.52
2023-03-13T03:56:03.586Z,986.52
2023-03-13T03:56:36.456Z,986.52
2023-03-13T03:57:07.628Z,986.52
2023-03-13T03:57:40.449Z,986.52
2023-03-13T03:58:11.471Z,986.62
2023-03-13T03:58:44.579Z,986.62
2023-03-13T03:59:15.533Z,986.42
2023-03-13T03:59:48.284Z,986.42
2023-03-13T04:00:19.705Z,986.52
2023-03-13T04:00:52.363Z,986.52
2023-03-13T04:01:23.496Z,986.52
2023-03-13T04:02:11.850Z,986.62
2023-03-13T04:02:43.571Z,986.62
2023-03-13T04:03:27.302Z,986.52
2023-03-13T04:03:59.337Z,986.52
2023-03-13T04:04:31.167Z,986.52
2023-03-13T04:05:03.183Z,986.42
2023-03-13T04:05:35.193Z,986.42
2023-03-13T04:06:07.272Z,986.52
2023-03-13T04:06:39.057Z,986.52
2023-03-13T04:07:11.140Z,986.32
2023-03-13T04:07:43.098Z,986.32
2023-03-13T04:08:15.152Z,986.32
2023-03-13T04:08:47.072Z,986.32
2023-03-13T04:09:19.039Z,986.42
2023-03-13T04:09:51.130Z,986.42
2023-03-13T04:10:23.056Z,986.22
2023-03-13T04:10:55.079Z,986.22
2023-03-13T04:11:26.929Z,986.32
2023-03-13T04:11:58.973Z,986.22
2023-03-13T04:12:31.094Z,986.22
2023-03-13T04:13:02.851Z,986.11
2023-03-13T04:13:34.818Z,986.11
2023-03-13T04:14:06.896Z,986.11
2023-03-13T04:14:39.242Z,986.11
2023-03-13T04:15:11.170Z,986.01
2023-03-13T04:15:43.165Z,986.01
2023-03-13T04:16:14.828Z,986.22
2023-03-13T04:16:46.822Z,986.22
2023-03-13T04:17:18.719Z,986.22
2023-03-13T04:17:50.798Z,986.22
2023-03-13T04:18:22.715Z,986.01
2023-03-13T04:18:54.753Z,986.01
2023-03-13T04:19:26.570Z,985.91
2023-03-13T04:19:58.629Z,986.01
2023-03-13T04:20:30.750Z,986.01
2023-03-13T04:21:02.661Z,986.11
2023-03-13T04:21:34.462Z,986.11
2023-03-13T04:22:06.981Z,986.01
2023-03-13T04:22:38.516Z,986.01
2023-03-13T04:23:10.625Z,985.71
2023-03-13T04:23:42.373Z,985.71
2023-03-13T04:24:14.396Z,985.81
2023-03-13T04:24:46.415Z,985.81
2023-03-13T04:25:18.476Z,986.01
2023-03-13T04:25:50.373Z,986.01
2023-03-13T04:26:22.348Z,985.81
2023-03-13T04:26:54.348Z,985.81
2023-03-13T04:27:26.382Z,985.64
2023-03-13T04:27:58.256Z,985.81
2023-03-13T04:28:30.403Z,985.81
2023-03-13T04:29:02.438Z,985.71
2023-03-13T04:29:34.299Z,985.71
2023-03-13T04:30:06.426Z,985.64
2023-03-13T04:30:38.173Z,985.64
2023-03-13T04:31:10.245Z,985.71
2023-03-13T04:31:42.210Z,985.71
2023-03-13T04:32:14.061Z,985.71
2023-03-13T04:32:46.144Z,985.71
2023-03-13T04:33:18.100Z,985.71
2023-03-13T04:33:50.167Z,985.71
2023-03-13T04:34:22.004Z,985.54
2023-03-13T04:34:53.978Z,985.54
2023-03-13T04:35:26.012Z,985.81
2023-03-13T04:35:58.022Z,985.81
2023-03-13T04:36:29.834Z,985.81
2023-03-13T04:37:01.935Z,985.71
2023-03-13T04:37:33.892Z,985.71
2023-03-13T04:38:05.912Z,985.81
2023-03-13T04:38:37.758Z,985.81
2023-03-13T04:39:09.787Z,986.01
2023-03-13T04:39:41.818Z,986.01
2023-03-13T04:40:13.849Z,985.81
2023-03-13T04:40:45.624Z,985.81
2023-03-13T04:41:17.698Z,985.91
2023-03-13T04:41:50.050Z,985.91
2023-03-13T04:42:21.708Z,986.01
2023-03-13T04:42:53.571Z,986.01
2023-03-13T04:43:25.542Z,986.01
2023-03-13T04:43:57.582Z,986.01
2023-03-13T04:44:29.642Z,986.01
2023-03-13T04:45:01.772Z,985.91
2023-03-13T04:45:33.480Z,985.91
2023-03-13T04:46:05.545Z,985.81
2023-03-13T04:46:37.613Z,985.81
2023-03-13T04:47:09.740Z,985.81
2023-03-13T04:47:41.384Z,985.81
2023-03-13T04:48:13.395Z,985.54
2023-03-13T04:48:45.629Z,985.54
2023-03-13T04:49:17.404Z,985.71
2023-03-13T04:49:49.422Z,985.71
2023-03-13T04:50:21.320Z,985.71
2023-03-13T04:50:53.375Z,985.71
2023-03-13T04:51:25.204Z,985.71
2023-03-13T04:51:57.216Z,985.71
2023-03-13T04:52:29.233Z,985.71
2023-03-13T04:53:01.352Z,985.81
2023-03-13T04:53:33.300Z,985.81
2023-03-13T04:54:05.133Z,985.71
2023-03-13T04:54:37.124Z,985.71
2023-03-13T04:55:09.565Z,985.81
2023-03-13T04:55:41.186Z,985.81
2023-03-13T04:56:12.991Z,985.71
2023-03-13T04:56:45.062Z,985.71
2023-03-13T04:57:17.105Z,985.91
2023-03-13T04:57:49.076Z,985.91
2023-03-13T04:58:21.106Z,985.71
2023-03-13T04:58:52.992Z,985.71
2023-03-13T04:59:25.014Z,985.64
2023-03-13T04:59:57.008Z,985.64
2023-03-13T05:00:28.970Z,985.71
2023-03-13T05:01:01.135Z,985.81
2023-03-13T05:01:32.997Z,985.81
2023-03-13T05:02:04.886Z,985.64
2023-03-13T05:02:36.744Z,985.64
2023-03-13T05:03:08.777Z,985.44
2023-03-13T05:03:40.953Z,985.44
2023-03-13T05:04:12.861Z,985.64
2023-03-13T05:04:44.677Z,985.64
2023-03-13T05:05:16.800Z,985.71
2023-03-13T05:05:48.722Z,985.71
2023-03-13T05:06:20.816Z,985.64
2023-03-13T05:06:52.586Z,985.64
2023-03-13T05:07:25.477Z,985.64
2023-03-13T05:07:56.944Z,985.64
2023-03-13T05:08:28.658Z,985.54
2023-03-13T05:09:00.543Z,985.64
2023-03-13T05:09:32.561Z,985.64
2023-03-13T05:10:04.512Z,985.54
2023-03-13T05:10:36.611Z,985.54
2023-03-13T05:11:08.374Z,985.54
2023-03-13T05:11:40.438Z,985.54
2023-03-13T05:12:12.452Z,985.34
2023-03-13T05:12:44.434Z,985.34
2023-03-13T05:13:16.294Z,985.44
2023-03-13T05:13:48.410Z,985.44
2023-03-13T05:14:20.378Z,985.34
2023-03-13T05:14:52.387Z,985.34
2023-03-13T05:15:24.337Z,985.23
2023-03-13T05:15:56.260Z,985.23
2023-03-13T05:16:28.271Z,985.23
2023-03-13T05:17:00.293Z,985.23
2023-03-13T05:17:32.101Z,985.23
2023-03-13T05:18:04.206Z,985.54
2023-03-13T05:18:36.201Z,985.54
2023-03-13T05:19:08.164Z,985.34
2023-03-13T05:19:40.011Z,985.34
2023-03-13T05:20:12.088Z,985.34
2023-03-13T05:20:44.032Z,985.34
2023-03-13T05:21:16.123Z,985.44
2023-03-13T05:21:47.944Z,985.44
2023-03-13T05:22:19.988Z,985.34
2023-03-13T05:22:51.946Z,985.34
2023-03-13T05:23:23.965Z,985.64
2023-03-13T05:23:55.987Z,985.64
2023-03-13T05:24:28.035Z,985.44
2023-03-13T05:24:59.847Z,985.54
2023-03-13T05:25:31.875Z,985.54
2023-03-13T05:26:03.914Z,985.34
2023-03-13T05:26:35.754Z,985.34
2023-03-13T05:27:07.760Z,985.54
2023-03-13T05:27:39.809Z,985.54
2023-03-13T05:28:11.853Z,985.44
2023-03-13T05:28:43.646Z,985.44
2023-03-13T05:29:15.732Z,985.34
2023-03-13T05:29:47.751Z,985.34
2023-03-13T05:30:19.943Z,985.44
2023-03-13T05:30:51.670Z,985.44
2023-03-13T05:31:23.863Z,985.44
2023-03-13T05:31:55.625Z,985.44
2023-03-13T05:32:27.687Z,985.44
2023-03-13T05:32:59.518Z,985.44
2023-03-13T05:33:31.498Z,985.44
2023-03-13T05:34:03.548Z,985.54
2023-03-13T05:34:35.539Z,985.54
2023-03-13T05:35:07.355Z,985.44
2023-03-13T05:35:39.434Z,985.44
2023-03-13T05:36:11.433Z,985.54
2023-03-13T05:36:43.506Z,985.54
2023-03-13T05:37:15.318Z,985.64
2023-03-13T05:37:47.337Z,985.64
2023-03-13T05:38:19.333Z,985.44
2023-03-13T05:38:51.613Z,985.44
2023-03-13T05:39:23.244Z,985.44
2023-03-13T05:39:55.225Z,985.44
2023-03-13T05:40:27.296Z,985.34
2023-03-13T05:40:59.281Z,985.54
2023-03-13T05:41:31.175Z,985.54
2023-03-13T05:42:03.146Z,985.44
2023-03-13T05:42:35.188Z,985.44
2023-03-13T05:43:07.199Z,985.34
2023-03-13T05:43:39.047Z,985.34
2023-03-13T05:44:11.102Z,985.23
2023-03-13T05:44:43.117Z,985.23
2023-03-13T05:45:15.279Z,985.34
2023-03-13T05:45:47.010Z,985.34
2023-03-13T05:46:19.036Z,985.34
2023-03-13T05:46:51.103Z,985.34
2023-03-13T05:47:23.049Z,985.44
2023-03-13T05:47:55.040Z,985.44
2023-03-13T05:48:26.964Z,985.34
2023-03-13T05:48:58.989Z,985.13
2023-03-13T05:49:31.016Z,985.13
2023-03-13T05:50:02.870Z,985.34
2023-03-13T05:50:34.755Z,985.34
2023-03-13T05:51:06.803Z,985.34
2023-03-13T05:51:38.833Z,985.34
2023-03-13T05:52:10.762Z,985.34
2023-03-13T05:52:42.706Z,985.34
2023-03-13T05:53:14.745Z,985.34
2023-03-13T05:53:46.790Z,985.34
2023-03-13T05:54:18.581Z,985.23
2023-03-13T05:54:50.976Z,985.23
2023-03-13T05:55:22.658Z,985.34
2023-03-13T05:55:54.727Z,985.34
2023-03-13T05:56:26.478Z,985.13
2023-03-13T05:56:58.526Z,985.34
2023-03-13T05:57:30.748Z,985.34
2023-03-13T05:58:02.815Z,985.44
2023-03-13T05:58:34.389Z,985.44
2023-03-13T05:59:06.439Z,985.34
2023-03-13T05:59:38.454Z,985.34
2023-03-13T06:00:10.790Z,985.34
2023-03-13T06:00:42.354Z,985.34
2023-03-13T06:01:14.365Z,985.23
2023-03-13T06:01:46.421Z,985.23
2023-03-13T06:02:18.469Z,985.44
2023-03-13T06:02:50.225Z,985.44
2023-03-13T06:03:22.270Z,985.44
2023-03-13T06:03:54.359Z,985.44
2023-03-13T06:04:26.379Z,985.44
2023-03-13T06:04:58.721Z,985.34
2023-03-13T06:05:30.179Z,985.34
2023-03-13T06:06:02.227Z,985.44
2023-03-13T06:06:35.009Z,985.44
2023-03-13T06:07:06.042Z,985.34
2023-03-13T06:07:38.076Z,985.34
2023-03-13T06:08:10.335Z,985.23
2023-03-13T06:08:42.150Z,985.23
2023-03-13T06:09:14.002Z,985.23
2023-03-13T06:09:45.986Z,985.23
2023-03-13T06:10:18.017Z,985.13
2023-03-13T06:10:50.033Z,985.13
2023-03-13T06:11:21.876Z,985.13
2023-03-13T06:11:53.872Z,985.13
2023-03-13T06:12:25.882Z,985.23
2023-03-13T06:12:58.877Z,985.13
2023-03-13T06:13:29.741Z,985.13
2023-03-13T06:14:01.879Z,985.13
2023-03-13T06:14:33.905Z,985.13
2023-03-13T06:15:06.159Z,985.13
2023-03-13T06:15:37.651Z,985.13
2023-03-13T06:16:09.724Z,985.23
2023-03-13T06:16:41.724Z,985.23
2023-03-13T06:17:13.774Z,985.03
2023-03-13T06:17:45.716Z,985.03
2023-03-13T06:18:17.589Z,984.93
2023-03-13T06:18:49.639Z,984.93
2023-03-13T06:19:21.743Z,985.13
2023-03-13T06:19:53.688Z,985.13
2023-03-13T06:20:25.520Z,985.03
2023-03-13T06:20:57.565Z,985.13
2023-03-13T06:21:29.549Z,985.13
2023-03-13T06:22:01.393Z,984.93
2023-03-13T06:22:33.402Z,984.93
2023-03-13T06:23:05.427Z,984.93
2023-03-13T06:23:37.456Z,984.93
2023-03-13T06:24:09.515Z,985.03
2023-03-13T06:24:41.335Z,985.03
2023-03-13T06:25:13.384Z,984.93
2023-03-13T06:25:45.573Z,984.93
2023-03-13T06:26:17.387Z,984.93
2023-03-13T06:26:49.733Z,984.93
2023-03-13T06:27:21.336Z,985.13
2023-03-13T06:27:53.305Z,985.13
2023-03-13T06:28:25.330Z,985.13
2023-03-13T06:28:57.219Z,985.13
2023-03-13T06:29:29.204Z,985.03
2023-03-13T06:30:01.514Z,985.23
2023-03-13T06:30:33.231Z,985.23
2023-03-13T06:31:05.141Z,985.03
2023-03-13T06:31:37.226Z,985.03
2023-03-13T06:32:09.242Z,985.03
2023-03-13T06:32:41.352Z,985.03
2023-03-13T06:33:13.081Z,985.03
2023-03-13T06:33:45.027Z,985.03
2023-03-13T06:34:17.051Z,985.03
2023-03-13T06:34:49.048Z,985.03
2023-03-13T06:35:20.947Z,985.13
2023-03-13T06:35:56.686Z,985.13
2023-03-13T06:36:24.985Z,985.23
2023-03-13T06:36:57.133Z,985.23
2023-03-13T06:37:28.766Z,985.03
2023-03-13T06:38:00.962Z,985.23
2023-03-13T06:38:32.835Z,985.23
2023-03-13T06:39:04.926Z,985.23
2023-03-13T06:39:36.759Z,985.23